Time;durP1;ratioP1;P1;durP2;ratioP2;P2;SDS_P1;SDS_P2;PMS_P1;PMS_P2;Temp;Humidity;BMP_temperature;BMP_pressure;BME280_temperature;BME280_humidity;BME280_pressure;Samples;Min_cycle;Max_cycle;Signal;HPM_P1;HPM_P2
2022/06/24 00:02:13;;;;;;;6.13;3.15;;;;;;;21.19;49.63;100914.41;5092536;28;20028;-56
2022/06/24 00:04:39;;;;;;;11.88;3.15;;;;;;;21.08;50.17;100908.16;5092628;28;20028;-56
2022/06/24 00:07:16;;;;;;;9.45;3.58;;;;;;;21.34;50.10;100917.16;5092282;28;20032;-55
2022/06/24 00:09:44;;;;;;;11.85;3.33;;;;;;;20.76;51.08;100913.91;5092395;28;20503;-54
2022/06/24 00:12:15;;;;;;;9.93;3.67;;;;;;;21.32;50.49;100919.34;5092576;28;20024;-53
2022/06/24 00:14:45;;;;;;;11.02;3.15;;;;;;;21.69;48.61;100912.69;5092971;28;20099;-55
2022/06/24 00:17:14;;;;;;;9.73;2.80;;;;;;;21.84;48.92;100915.34;5092149;28;20043;-55
2022/06/24 00:19:59;;;;;;;8.32;2.65;;;;;;;21.07;49.98;100903.00;5094770;28;20020;-56
2022/06/24 00:22:30;;;;;;;9.55;3.03;;;;;;;21.30;49.79;100910.63;5096317;28;20024;-55
2022/06/24 00:25:11;;;;;;;9.57;2.80;;;;;;;21.28;50.52;100909.25;5095681;28;20031;-55
2022/06/24 00:27:38;;;;;;;8.77;3.78;;;;;;;21.12;50.43;100903.00;5095717;28;20488;-55
2022/06/24 00:30:12;;;;;;;7.75;2.88;;;;;;;21.54;49.70;100896.38;5095629;28;20024;-56
2022/06/24 00:32:39;;;;;;;8.05;3.25;;;;;;;21.69;49.15;100890.06;5095637;28;20089;-57
2022/06/24 00:35:11;;;;;;;8.43;3.13;;;;;;;21.78;48.98;100899.31;5095399;28;20102;-57
2022/06/24 00:37:39;;;;;;;5.38;2.40;;;;;;;20.79;50.09;100899.78;5096187;28;20060;-57
2022/06/24 00:40:14;;;;;;;9.85;2.70;;;;;;;20.54;52.02;100897.88;5095368;28;20034;-56
2022/06/24 00:42:45;;;;;;;8.73;3.00;;;;;;;20.48;52.20;100898.13;5095501;28;20105;-56
2022/06/24 00:45:30;;;;;;;6.82;2.95;;;;;;;20.76;51.71;100903.03;5095987;28;20025;-56
2022/06/24 00:47:57;;;;;;;5.22;2.90;;;;;;;19.98;53.38;100891.47;5095231;28;20449;-58
2022/06/24 00:50:25;;;;;;;4.95;2.60;;;;;;;20.09;53.77;100901.28;5095144;28;20037;-57
2022/06/24 00:52:54;;;;;;;4.85;2.13;;;;;;;20.31;53.03;100893.72;5093995;28;20024;-56
2022/06/24 00:55:28;;;;;;;9.82;2.15;;;;;;;20.06;53.45;100893.69;5095257;28;20024;-56
2022/06/24 00:57:55;;;;;;;5.85;2.28;;;;;;;19.85;53.83;100884.63;5095398;28;20060;-56
2022/06/24 01:00:27;;;;;;;3.67;2.00;;;;;;;19.76;54.15;100897.09;5095171;28;20067;-56
2022/06/24 01:03:02;;;;;;;4.35;1.80;;;;;;;19.73;54.45;100893.03;5095104;28;20472;-56
2022/06/24 01:05:29;;;;;;;4.70;2.57;;;;;;;19.50;54.96;100896.16;5095377;28;20028;-52
2022/06/24 01:07:56;;;;;;;4.28;1.83;;;;;;;19.49;55.16;100898.06;5094794;28;20303;-52
2022/06/24 01:10:23;;;;;;;4.70;2.03;;;;;;;19.14;56.82;100897.81;5094698;28;20024;-52
2022/06/24 01:12:49;;;;;;;5.35;2.70;;;;;;;19.33;55.94;100906.38;5094661;28;20055;-55
2022/06/24 01:15:15;;;;;;;5.20;2.25;;;;;;;19.01;58.02;100907.25;5094462;28;20032;-54
2022/06/24 01:17:42;;;;;;;4.57;2.28;;;;;;;19.10;56.59;100902.97;5094890;28;20034;-54
2022/06/24 01:20:09;;;;;;;5.47;2.05;;;;;;;18.96;56.80;100904.50;5094768;28;20035;-54
2022/06/24 01:22:36;;;;;;;4.88;2.30;;;;;;;18.95;57.62;100905.56;5094890;28;20487;-55
2022/06/24 01:25:03;;;;;;;5.05;2.38;;;;;;;18.60;57.52;100904.19;5095069;28;20032;-54
2022/06/24 01:27:29;;;;;;;3.42;2.20;;;;;;;18.90;57.40;100910.97;5094605;28;20016;-54
2022/06/24 01:29:56;;;;;;;6.03;2.42;;;;;;;18.49;57.57;100910.59;5093936;28;20028;-54
2022/06/24 01:32:22;;;;;;;5.35;2.40;;;;;;;18.12;59.15;100916.69;5094524;28;20081;-54
2022/06/24 01:34:49;;;;;;;5.80;2.13;;;;;;;18.21;58.61;100903.50;5094243;28;20102;-54
2022/06/24 01:37:15;;;;;;;5.72;2.05;;;;;;;18.41;57.93;100905.63;5094251;28;20034;-55
2022/06/24 01:39:41;;;;;;;4.85;2.30;;;;;;;17.79;59.29;100914.16;5094434;28;20028;-55
2022/06/24 01:42:08;;;;;;;4.82;2.90;;;;;;;17.83;59.39;100907.16;5093967;28;20031;-55
2022/06/24 01:44:35;;;;;;;5.75;2.55;;;;;;;17.91;59.09;100909.41;5094253;28;20415;-54
2022/06/24 01:47:02;;;;;;;8.77;3.05;;;;;;;17.51;60.79;100923.22;5094074;28;20491;-54
2022/06/24 01:49:29;;;;;;;8.18;3.67;;;;;;;17.84;59.41;100927.75;5093785;28;20537;-53
2022/06/24 01:51:59;;;;;;;5.90;2.85;;;;;;;17.43;60.53;100924.47;5093815;28;20028;-55
2022/06/24 01:54:25;;;;;;;7.13;2.65;;;;;;;17.80;59.85;100919.31;5093889;28;20028;-54
2022/06/24 01:56:55;;;;;;;9.18;3.28;;;;;;;18.04;58.88;100917.13;5093978;28;20020;-54
2022/06/24 01:59:22;;;;;;;8.57;3.00;;;;;;;18.26;58.44;100919.00;5093907;28;20020;-55
2022/06/24 02:01:48;;;;;;;6.50;2.70;;;;;;;18.36;57.05;100919.94;5093851;28;20442;-55
2022/06/24 02:04:14;;;;;;;5.55;2.90;;;;;;;18.26;57.55;100922.53;5093789;28;20412;-54
2022/06/24 02:06:41;;;;;;;7.28;2.63;;;;;;;18.55;56.70;100906.84;5093751;28;20062;-55
2022/06/24 02:09:08;;;;;;;10.73;4.55;;;;;;;17.92;58.19;100916.47;5093608;28;20107;-55
2022/06/24 02:14:20;;;;;;;8.82;3.13;;;;;;;18.77;56.48;100923.06;5093817;28;20026;-54
2022/06/24 02:16:47;;;;;;;6.25;2.72;;;;;;;19.05;54.90;100930.06;5093759;28;20024;-56
2022/06/24 02:19:13;;;;;;;6.07;2.35;;;;;;;19.18;54.06;100926.91;5092125;28;20024;-56
2022/06/24 02:21:40;;;;;;;5.63;2.67;;;;;;;19.33;54.09;100926.19;5093443;28;20365;-57
2022/06/24 02:24:06;;;;;;;8.30;2.95;;;;;;;19.30;54.17;100923.16;5093618;28;20020;-58
2022/06/24 02:26:32;;;;;;;6.47;3.33;;;;;;;19.21;54.10;100923.66;5093716;28;20031;-58
2022/06/24 02:28:58;;;;;;;8.13;3.03;;;;;;;18.96;55.14;100921.59;5093212;28;20081;-57
2022/06/24 02:31:25;;;;;;;4.93;2.50;;;;;;;18.91;55.15;100918.81;5092902;28;20032;-57
2022/06/24 02:33:51;;;;;;;5.88;2.45;;;;;;;18.99;54.52;100920.25;5093125;28;20058;-57
2022/06/24 02:36:18;;;;;;;7.80;2.45;;;;;;;18.81;55.26;100923.34;5093089;28;20534;-57
2022/06/24 02:38:45;;;;;;;4.65;2.42;;;;;;;19.02;54.78;100924.34;5093110;28;20028;-58
2022/06/24 02:41:11;;;;;;;6.00;2.50;;;;;;;19.35;54.07;100915.06;5092677;28;20016;-57
2022/06/24 02:43:39;;;;;;;5.18;2.60;;;;;;;18.85;55.19;100928.00;5092486;28;20189;-57
2022/06/24 02:46:07;;;;;;;7.13;3.05;;;;;;;18.74;55.17;100926.28;5093104;28;20020;-57
2022/06/24 02:48:36;;;;;;;9.57;3.10;;;;;;;19.17;54.61;100932.59;5093700;28;20464;-57
2022/06/24 02:51:04;;;;;;;6.63;3.00;;;;;;;19.31;53.79;100943.78;5093008;28;20039;-57
2022/06/24 02:53:31;;;;;;;8.73;3.08;;;;;;;18.26;56.98;100933.38;5093041;28;20024;-57
2022/06/24 02:56:00;;;;;;;5.05;2.47;;;;;;;18.50;56.41;100933.91;5092497;28;20044;-57
2022/06/24 02:58:27;;;;;;;9.20;3.03;;;;;;;18.01;57.60;100931.19;5092972;28;20029;-57
2022/06/24 03:00:53;;;;;;;4.28;2.38;;;;;;;17.68;59.05;100932.13;5092659;28;20020;-58
2022/06/24 03:03:21;;;;;;;5.28;2.90;;;;;;;17.45;59.73;100933.16;5091665;28;20537;-59
2022/06/24 03:05:49;;;;;;;5.95;2.53;;;;;;;17.03;61.20;100940.91;5093491;28;20112;-59
2022/06/24 03:08:16;;;;;;;4.22;2.13;;;;;;;16.84;61.35;100940.34;5093007;28;20060;-59
2022/06/24 03:10:44;;;;;;;5.50;2.47;;;;;;;16.87;61.85;100942.53;5093933;28;20115;-59
2022/06/24 03:13:11;;;;;;;4.32;2.63;;;;;;;16.69;62.71;100948.97;5093706;28;20032;-59
2022/06/24 03:15:37;;;;;;;3.60;2.38;;;;;;;16.25;63.68;100932.50;5093125;28;20028;-59
2022/06/24 03:18:05;;;;;;;4.70;1.90;;;;;;;16.07;64.32;100944.31;5092834;28;20028;-59
2022/06/24 03:20:31;;;;;;;4.53;2.40;;;;;;;15.93;64.76;100959.13;5092920;28;20028;-59
2022/06/24 03:22:57;;;;;;;3.80;2.17;;;;;;;15.22;67.87;100946.75;5093125;28;20039;-58
2022/06/24 03:25:23;;;;;;;9.93;3.20;;;;;;;15.51;67.08;100947.69;5092983;28;20016;-58
2022/06/24 03:27:50;;;;;;;4.75;2.40;;;;;;;15.36;67.45;100948.16;5093013;28;20027;-59
2022/06/24 03:30:16;;;;;;;6.30;2.63;;;;;;;14.90;69.18;100951.63;5074790;28;20480;-59
2022/06/24 03:32:42;;;;;;;4.38;2.47;;;;;;;15.11;68.87;100959.16;5093061;28;20024;-59
2022/06/24 03:35:09;;;;;;;4.93;2.55;;;;;;;14.89;69.40;100956.22;5092745;28;20028;-58
2022/06/24 03:37:35;;;;;;;5.45;2.65;;;;;;;14.40;71.32;100960.84;5092659;28;20028;-58
2022/06/24 03:40:03;;;;;;;5.10;3.15;;;;;;;14.39;71.15;100953.81;5092723;28;20114;-58
2022/06/24 03:42:29;;;;;;;4.15;3.00;;;;;;;14.23;71.92;100957.13;5092751;28;20516;-58
2022/06/24 03:44:55;;;;;;;6.22;2.72;;;;;;;14.16;72.35;100961.78;5092698;28;20032;-58
2022/06/24 03:47:22;;;;;;;3.97;3.05;;;;;;;14.31;72.15;100961.38;5092866;28;20024;-58
2022/06/24 03:49:51;;;;;;;6.57;3.90;;;;;;;14.16;72.72;100962.59;5092856;28;20020;-58
2022/06/24 03:52:18;;;;;;;5.05;3.30;;;;;;;14.31;72.36;100959.50;5092802;28;20027;-58
2022/06/24 03:54:44;;;;;;;3.42;2.50;;;;;;;14.27;72.38;100967.22;5095830;28;20058;-58
2022/06/24 03:57:10;;;;;;;4.18;2.80;;;;;;;14.22;72.69;100960.88;5096340;28;20067;-58
2022/06/24 03:59:36;;;;;;;7.00;4.43;;;;;;;14.04;73.53;100966.25;5095030;28;20469;-58
2022/06/24 04:02:03;;;;;;;4.10;3.30;;;;;;;14.20;72.94;100954.88;5096224;28;20097;-58
2022/06/24 04:04:29;;;;;;;9.65;4.45;;;;;;;13.99;73.51;100957.03;5096005;28;20024;-58
2022/06/24 04:06:56;;;;;;;7.28;3.95;;;;;;;13.95;74.08;100969.28;5096432;28;20529;-58
2022/06/24 04:09:22;;;;;;;5.13;3.47;;;;;;;14.04;73.63;100972.47;5096058;28;20027;-58
2022/06/24 04:11:49;;;;;;;5.70;4.07;;;;;;;13.70;75.09;100965.81;5096088;28;20475;-58
2022/06/24 04:15:13;;;;;;;6.43;4.22;;;;;;;13.99;73.92;100959.72;5095786;28;20077;-58
2022/06/24 04:17:03;;;;;;;7.13;4.53;;;;;;;13.94;73.74;100967.63;5096072;28;20036;-58
2022/06/24 04:19:30;;;;;;;5.45;4.22;;;;;;;13.61;75.29;100972.56;5095800;28;20467;-58
2022/06/24 04:21:56;;;;;;;6.10;4.32;;;;;;;13.74;75.04;100972.41;5095928;28;20028;-58
2022/06/24 04:24:22;;;;;;;7.15;3.83;;;;;;;13.35;76.31;100976.31;5095903;28;20031;-58
2022/06/24 04:26:48;;;;;;;5.75;3.90;;;;;;;13.49;76.30;100969.75;5095789;28;20016;-58
2022/06/24 04:29:15;;;;;;;7.38;5.00;;;;;;;13.61;75.94;100977.94;5096164;28;20024;-58
2022/06/24 04:31:41;;;;;;;6.60;3.85;;;;;;;13.65;75.80;100979.13;5095493;28;20105;-58
2022/06/24 04:34:07;;;;;;;5.65;3.42;;;;;;;13.61;76.18;100972.56;5095629;28;20020;-58
2022/06/24 04:36:33;;;;;;;6.97;3.47;;;;;;;13.65;75.84;100977.25;5095842;28;20028;-58
2022/06/24 04:38:59;;;;;;;4.20;3.67;;;;;;;13.72;75.95;100969.94;5095553;28;20101;-57
2022/06/24 04:41:25;;;;;;;6.05;3.63;;;;;;;13.67;76.22;100971.66;5095448;28;20032;-58
2022/06/24 04:43:52;;;;;;;5.57;3.58;;;;;;;13.73;76.25;100973.47;5095624;28;20036;-58
2022/06/24 04:46:18;;;;;;;9.68;2.70;;;;;;;13.73;75.67;100984.22;5096154;28;20039;-58
2022/06/24 04:48:44;;;;;;;5.45;2.60;;;;;;;13.90;74.79;100979.88;5094476;28;20460;-58
2022/06/24 04:51:12;;;;;;;4.47;2.70;;;;;;;13.69;75.18;100980.31;5095449;28;20027;-58
2022/06/24 04:53:38;;;;;;;4.22;2.28;;;;;;;13.49;76.14;100975.13;5095258;28;20024;-58
2022/06/24 04:56:05;;;;;;;2.97;1.75;;;;;;;13.62;75.63;100974.19;5095296;28;20048;-58
2022/06/24 04:58:31;;;;;;;4.38;2.58;;;;;;;13.78;74.88;100981.69;5095678;28;20482;-58
2022/06/24 05:00:58;;;;;;;4.60;2.70;;;;;;;13.90;74.35;100985.25;5095210;28;20020;-58
2022/06/24 05:03:24;;;;;;;4.57;2.38;;;;;;;13.87;74.68;100980.31;5095103;28;20020;-58
2022/06/24 05:05:52;;;;;;;4.68;2.17;;;;;;;13.73;75.14;100981.53;5094268;28;20024;-58
2022/06/24 05:08:18;;;;;;;3.05;2.00;;;;;;;13.82;74.57;100980.16;5094859;28;20381;-58
2022/06/24 05:10:44;;;;;;;3.85;2.38;;;;;;;13.88;74.05;100982.00;5095214;28;20024;-57
2022/06/24 05:13:10;;;;;;;7.25;3.30;;;;;;;13.69;74.94;100974.94;5095112;28;20031;-58
2022/06/24 05:15:37;;;;;;;5.65;2.40;;;;;;;13.91;74.17;100978.84;5094734;28;20032;-58
2022/06/24 05:18:03;;;;;;;5.30;2.50;;;;;;;13.91;74.66;100983.41;5094853;28;20460;-58
2022/06/24 05:20:30;;;;;;;4.40;2.50;;;;;;;13.77;75.38;100984.56;5095313;28;20059;-58
2022/06/24 05:22:57;;;;;;;7.32;2.60;;;;;;;13.52;76.95;100987.31;5093701;28;20042;-58
2022/06/24 05:25:23;;;;;;;5.68;2.85;;;;;;;13.74;75.04;100989.38;5094883;28;20028;-58
2022/06/24 05:27:49;;;;;;;6.28;2.95;;;;;;;13.86;73.67;100992.13;5094661;28;20028;-58
2022/06/24 05:30:15;;;;;;;5.05;2.75;;;;;;;13.88;73.73;100991.91;5094807;28;20031;-58
2022/06/24 05:32:41;;;;;;;5.22;2.63;;;;;;;13.80;74.06;100990.34;5095023;28;20082;-58
2022/06/24 05:35:08;;;;;;;7.18;2.42;;;;;;;13.82;74.16;100987.41;5094740;28;20030;-58
2022/06/24 05:37:35;;;;;;;6.32;2.75;;;;;;;13.59;75.62;100996.16;5093474;28;20051;-57
2022/06/24 05:40:01;;;;;;;7.55;3.25;;;;;;;13.73;75.07;100993.09;5094520;28;20028;-56
2022/06/24 05:42:27;;;;;;;6.55;3.33;;;;;;;13.78;74.97;100989.75;5095103;28;20048;-57
2022/06/24 05:44:56;;;;;;;8.38;3.20;;;;;;;13.53;76.36;100992.47;5094173;28;20220;-57
2022/06/24 05:47:23;;;;;;;4.55;3.10;;;;;;;13.69;75.39;101001.84;5095073;28;20130;-57
2022/06/24 05:49:49;;;;;;;5.93;2.85;;;;;;;13.59;74.95;100996.16;5092797;28;20027;-57
2022/06/24 05:52:15;;;;;;;8.32;2.90;;;;;;;13.74;74.14;101002.81;5093893;28;20472;-57
2022/06/24 05:57:26;;;;;;;4.35;2.25;;;;;;;13.75;73.82;100995.56;5094217;28;20043;-57
2022/06/24 05:59:52;;;;;;;6.68;2.50;;;;;;;13.47;74.77;101004.94;5094575;28;20074;-57
2022/06/24 06:02:20;;;;;;;4.78;2.40;;;;;;;13.51;74.82;101009.88;5093891;28;20122;-57
2022/06/24 06:04:46;;;;;;;6.38;2.70;;;;;;;13.63;74.56;100998.16;5093869;28;20082;-57
2022/06/24 06:07:13;;;;;;;4.65;2.25;;;;;;;13.42;75.43;100995.88;5093938;28;20079;-57
2022/06/24 06:09:39;;;;;;;2.72;2.10;;;;;;;13.44;76.00;101000.03;5093849;28;20099;-58
2022/06/24 06:12:06;;;;;;;4.10;2.88;;;;;;;13.40;76.72;100993.44;5093944;28;20484;-57
2022/06/24 06:14:32;;;;;;;3.08;2.40;;;;;;;13.28;77.11;100995.19;5094482;28;20060;-58
2022/06/24 06:16:58;;;;;;;3.55;2.35;;;;;;;13.35;76.98;101000.50;5093670;28;20019;-57
2022/06/24 06:19:24;;;;;;;3.53;2.10;;;;;;;13.47;75.99;100994.19;5094233;28;20099;-58
2022/06/24 06:21:50;;;;;;;4.85;2.08;;;;;;;13.14;77.31;100990.94;5094071;28;20032;-58
2022/06/24 06:24:17;;;;;;;2.83;1.88;;;;;;;13.33;76.58;100986.47;5093930;28;20020;-58
2022/06/24 06:26:43;;;;;;;3.97;1.88;;;;;;;13.55;75.14;100984.19;5093745;28;20020;-58
2022/06/24 06:29:09;;;;;;;4.30;1.98;;;;;;;13.34;75.76;100999.69;5093961;28;20051;-57
2022/06/24 06:31:35;;;;;;;2.97;1.60;;;;;;;13.50;75.14;100992.94;5093593;28;20034;-57
2022/06/24 06:34:01;;;;;;;5.50;2.10;;;;;;;13.23;76.42;100995.03;5093356;28;20487;-57
2022/06/24 06:36:28;;;;;;;3.70;2.00;;;;;;;13.49;75.23;100993.94;5093464;28;20016;-57
2022/06/24 06:38:54;;;;;;;4.38;2.03;;;;;;;13.39;75.48;100986.41;5093680;28;20107;-57
2022/06/24 06:41:20;;;;;;;2.97;1.80;;;;;;;13.37;75.99;100982.28;5093285;28;20023;-57
2022/06/24 06:43:47;;;;;;;6.50;1.88;;;;;;;13.29;76.31;100990.66;5093168;28;20044;-57
2022/06/24 06:46:13;;;;;;;1.65;1.42;;;;;;;13.24;75.94;100985.91;5093000;28;20043;-57
2022/06/24 06:48:41;;;;;;;4.28;1.90;;;;;;;13.22;76.05;100985.34;5093344;28;20068;-57
2022/06/24 06:51:07;;;;;;;6.55;2.45;;;;;;;13.25;76.38;100984.06;5093168;28;20426;-57
2022/06/24 06:53:34;;;;;;;4.75;2.17;;;;;;;13.42;75.57;100995.88;5093487;28;20440;-57
2022/06/24 06:56:00;;;;;;;3.28;1.65;;;;;;;13.22;76.33;100984.50;5093328;28;20034;-57
2022/06/24 06:58:26;;;;;;;2.50;2.00;;;;;;;13.14;77.22;100989.06;5093054;28;20099;-57
2022/06/24 07:00:52;;;;;;;2.63;1.65;;;;;;;13.33;76.19;100994.53;5092642;28;20521;-58
2022/06/24 07:03:19;;;;;;;2.45;1.50;;;;;;;13.35;75.94;100998.66;5093214;28;20035;-57
2022/06/24 07:05:46;;;;;;;3.20;1.80;;;;;;;13.39;75.35;101002.53;5093277;28;20468;-57
2022/06/24 07:08:13;;;;;;;2.92;1.70;;;;;;;13.40;75.25;100998.00;5093096;28;20036;-57
2022/06/24 07:10:40;;;;;;;2.55;1.73;;;;;;;13.44;75.10;101000.03;5092787;28;20500;-57
2022/06/24 07:13:07;;;;;;;3.20;1.50;;;;;;;13.44;74.78;101000.03;5092936;28;20530;-57
2022/06/24 07:15:34;;;;;;;1.92;1.30;;;;;;;13.36;75.36;101005.66;5092985;28;20024;-57
2022/06/24 07:18:01;;;;;;;3.33;1.63;;;;;;;13.37;75.12;101003.78;5093016;28;20388;-57
2022/06/24 07:20:27;;;;;;;2.40;1.45;;;;;;;13.24;75.61;101002.06;5092908;28;20028;-58
2022/06/24 07:22:54;;;;;;;3.50;1.65;;;;;;;13.09;76.59;100996.13;5092860;28;20024;-57
2022/06/24 07:25:20;;;;;;;1.85;1.33;;;;;;;13.08;76.70;100999.88;5093043;28;20512;-57
2022/06/24 07:27:46;;;;;;;2.67;1.20;;;;;;;13.19;76.07;100986.53;5092798;28;20024;-57
2022/06/24 07:30:13;;;;;;;4.55;1.70;;;;;;;13.17;75.99;100985.94;5096539;28;20036;-57
2022/06/24 07:32:39;;;;;;;4.25;1.60;;;;;;;13.04;76.42;100985.22;5097194;28;20035;-57
2022/06/24 07:35:06;;;;;;;2.97;1.35;;;;;;;12.99;76.38;100979.69;5096594;28;20468;-57
2022/06/24 07:37:32;;;;;;;2.38;1.35;;;;;;;12.92;76.42;100980.56;5096687;28;20143;-57
2022/06/24 07:39:58;;;;;;;5.00;1.73;;;;;;;12.92;76.69;100975.19;5096806;28;20016;-57
2022/06/24 07:42:25;;;;;;;4.05;1.63;;;;;;;12.81;77.71;100975.06;5096434;28;20035;-57
2022/06/24 07:44:51;;;;;;;4.43;1.88;;;;;;;12.82;77.96;100976.69;5096629;28;20028;-57
2022/06/24 07:47:17;;;;;;;2.53;1.38;;;;;;;12.61;79.20;100970.66;5096855;28;20024;-57
2022/06/24 07:49:43;;;;;;;2.90;1.38;;;;;;;12.68;79.21;100973.28;5096728;28;20027;-57
2022/06/24 07:52:11;;;;;;;3.28;1.73;;;;;;;12.84;78.78;100969.25;5096937;28;20054;-58
2022/06/24 07:54:38;;;;;;;3.90;1.60;;;;;;;12.79;79.63;100975.28;5096475;28;20406;-58
2022/06/24 07:57:05;;;;;;;5.30;2.30;;;;;;;12.94;78.74;100961.53;5096614;28;20381;-58
2022/06/24 07:59:38;;;;;;;4.75;2.00;;;;;;;12.93;78.58;100963.38;5096428;28;20133;-57
2022/06/24 08:02:07;;;;;;;4.25;1.58;;;;;;;12.81;79.54;100957.06;5096459;28;20028;-58
2022/06/24 08:04:34;;;;;;;2.08;1.50;;;;;;;12.92;79.06;100953.69;5096356;28;20024;-58
2022/06/24 08:07:02;;;;;;;2.92;1.70;;;;;;;12.98;78.82;100959.22;5096305;28;20032;-57
2022/06/24 08:09:32;;;;;;;3.50;1.63;;;;;;;12.98;78.83;100961.91;5096288;28;20055;-58
2022/06/24 08:12:00;;;;;;;4.47;1.67;;;;;;;12.85;79.60;100957.47;5096086;28;20345;-57
2022/06/24 08:14:27;;;;;;;4.22;1.83;;;;;;;12.87;79.73;100966.94;5096299;28;20085;-58
2022/06/24 08:16:54;;;;;;;6.03;2.22;;;;;;;13.02;79.12;100973.88;5096067;28;20024;-58
2022/06/24 08:19:20;;;;;;;5.97;2.28;;;;;;;13.13;78.46;100971.28;5096057;28;20030;-57
2022/06/24 08:21:46;;;;;;;3.47;1.92;;;;;;;13.14;78.36;100975.63;5094673;28;20027;-57
2022/06/24 08:24:13;;;;;;;3.65;1.83;;;;;;;13.23;78.68;100967.34;5095777;28;20115;-57
2022/06/24 08:26:40;;;;;;;3.50;2.15;;;;;;;13.30;78.33;100971.59;5095937;28;20130;-58
2022/06/24 08:29:06;;;;;;;5.32;2.10;;;;;;;13.25;78.28;100971.44;5095791;28;20130;-57
2022/06/24 08:31:32;;;;;;;9.75;2.75;;;;;;;13.24;78.24;100983.22;5095745;28;20031;-57
2022/06/24 08:33:58;;;;;;;3.72;1.90;;;;;;;13.23;78.49;100988.84;5095690;28;20072;-57
2022/06/24 08:36:26;;;;;;;5.40;2.50;;;;;;;13.24;78.49;100994.00;5095680;28;20349;-57
2022/06/24 08:38:54;;;;;;;5.72;2.35;;;;;;;13.33;77.92;100995.38;5095640;28;20016;-57
2022/06/24 08:41:25;;;;;;;3.63;2.15;;;;;;;13.18;78.41;100990.28;5095371;28;20039;-58
2022/06/24 08:43:53;;;;;;;5.82;2.30;;;;;;;13.15;78.67;100987.19;5095527;28;20047;-57
2022/06/24 08:46:20;;;;;;;4.38;2.00;;;;;;;13.12;78.90;100993.03;5096116;28;20024;-57
2022/06/24 08:48:47;;;;;;;3.42;1.95;;;;;;;13.05;78.34;100990.41;5095566;28;20097;-57
2022/06/24 08:51:14;;;;;;;3.40;1.58;;;;;;;12.98;78.74;100988.78;5095290;28;20479;-57
2022/06/24 08:53:41;;;;;;;3.75;1.80;;;;;;;13.00;78.47;100981.34;5095525;28;20419;-57
2022/06/24 08:56:10;;;;;;;2.40;1.38;;;;;;;12.81;79.46;100985.81;5095620;28;20460;-57
2022/06/24 08:58:37;;;;;;;3.40;2.13;;;;;;;12.86;79.80;100978.72;5095275;28;20118;-57
2022/06/24 09:01:04;;;;;;;3.80;2.30;;;;;;;12.88;79.53;100989.25;5095158;28;20107;-57
2022/06/24 09:03:30;;;;;;;2.85;1.88;;;;;;;12.84;79.67;100983.50;5095087;28;20026;-57
2022/06/24 09:05:56;;;;;;;5.55;2.13;;;;;;;12.92;79.10;100985.94;5095064;28;20388;-57
2022/06/24 09:08:31;;;;;;;5.47;2.08;;;;;;;13.02;78.59;100984.63;5095114;28;20107;-57
2022/06/24 09:11:10;;;;;;;3.67;2.05;;;;;;;12.97;78.73;100982.59;5095117;28;20036;-57
2022/06/24 09:13:48;;;;;;;3.55;2.25;;;;;;;12.93;79.57;100978.69;5094947;28;20218;-58
2022/06/24 09:16:17;;;;;;;3.90;1.77;;;;;;;12.81;80.34;100977.75;5095216;28;20043;-58
2022/06/24 09:18:54;;;;;;;6.78;2.38;;;;;;;12.87;80.31;100976.88;5094760;28;20365;-58
2022/06/24 09:21:27;;;;;;;6.38;2.20;;;;;;;12.76;80.56;100981.06;5094886;28;20031;-57
2022/06/24 09:23:59;;;;;;;5.07;1.95;;;;;;;12.85;80.54;100982.47;5094802;28;20539;-57
2022/06/24 09:26:30;;;;;;;5.63;2.47;;;;;;;12.82;80.66;100990.13;5094693;28;20099;-58
2022/06/24 09:28:56;;;;;;;4.00;2.25;;;;;;;12.81;80.61;100983.13;5094652;28;20063;-58
2022/06/24 09:31:27;;;;;;;7.85;2.47;;;;;;;12.88;80.25;100978.50;5094340;28;20024;-58
2022/06/24 09:33:54;;;;;;;5.68;2.80;;;;;;;13.03;79.62;100980.91;5094640;28;20024;-58
2022/06/24 09:36:25;;;;;;;6.93;2.58;;;;;;;13.06;79.44;100975.91;5094476;28;20074;-58
2022/06/24 09:39:00;;;;;;;10.60;2.90;;;;;;;13.06;78.85;100967.03;5094613;28;20047;-58
2022/06/24 09:41:27;;;;;;;8.75;3.13;;;;;;;13.13;78.64;100967.78;5094509;28;20035;-58
2022/06/24 09:43:56;;;;;;;6.97;3.13;;;;;;;13.03;79.55;100965.59;5094160;28;20488;-57
2022/06/24 09:46:24;;;;;;;8.52;3.25;;;;;;;12.89;80.44;100969.44;5094728;28;20028;-57
2022/06/24 09:48:57;;;;;;;7.07;3.28;;;;;;;12.68;81.32;100962.56;5094172;28;20485;-58
2022/06/24 09:51:23;;;;;;;8.18;3.80;;;;;;;12.66;81.77;100962.78;5093899;28;20028;-58
2022/06/24 09:53:51;;;;;;;10.90;3.70;;;;;;;12.84;80.77;100966.56;5094487;28;20028;-58
2022/06/24 09:56:18;;;;;;;8.85;3.80;;;;;;;12.80;80.65;100965.34;5092943;28;20031;-57
2022/06/24 10:00:40;;;;;;;8.88;3.17;;;;;;;12.82;80.19;100968.63;5094045;28;20031;-57
2022/06/24 10:01:36;;;;;;;4.75;3.20;;;;;;;12.89;80.13;100967.56;5093986;28;20107;-57
2022/06/24 10:04:14;;;;;;;6.43;3.38;;;;;;;12.86;80.25;100970.69;5094007;28;20368;-58
2022/06/24 10:06:47;;;;;;;5.72;3.38;;;;;;;12.79;80.41;100969.09;5094049;28;20490;-58
2022/06/24 10:09:14;;;;;;;7.05;3.42;;;;;;;12.82;80.36;100972.16;5093928;28;20024;-58
2022/06/24 10:11:45;;;;;;;4.13;2.67;;;;;;;12.86;80.08;100975.22;5093906;28;20080;-58
2022/06/24 10:14:12;;;;;;;7.65;2.75;;;;;;;12.88;79.51;100974.00;5093785;28;20051;-58
2022/06/24 10:16:42;;;;;;;6.25;2.90;;;;;;;12.80;79.75;100971.56;5092467;28;20035;-58
2022/06/24 10:19:11;;;;;;;6.88;2.97;;;;;;;12.75;79.73;100975.94;5094402;28;20379;-58
2022/06/24 10:21:38;;;;;;;7.22;2.50;;;;;;;12.62;79.55;100976.84;5093610;28;20027;-58
2022/06/24 10:24:16;;;;;;;5.65;2.58;;;;;;;12.63;79.41;100971.25;5093896;28;20111;-58
2022/06/24 10:26:47;;;;;;;6.82;2.58;;;;;;;12.52;79.24;100969.25;5093530;28;20586;-58
2022/06/24 10:29:21;;;;;;;6.45;2.78;;;;;;;12.55;78.94;100968.84;5093607;28;20020;-57
2022/06/24 10:31:56;;;;;;;3.42;1.88;;;;;;;12.60;79.00;100971.69;5093582;28;20147;-58
2022/06/24 10:34:32;;;;;;;4.47;2.58;;;;;;;12.40;79.83;100955.69;5093532;28;20058;-58
2022/06/24 10:37:06;;;;;;;5.63;2.08;;;;;;;12.54;79.18;100952.91;5093270;28;20490;-58
2022/06/24 10:39:45;;;;;;;4.80;1.85;;;;;;;12.71;78.38;100951.34;5093146;28;20032;-59
2022/06/24 10:42:14;;;;;;;7.85;2.08;;;;;;;12.38;80.01;100946.19;5094046;28;20100;-58
2022/06/24 10:45:05;;;;;;;5.00;1.80;;;;;;;12.55;79.04;100947.34;5093020;28;20036;-59
2022/06/24 10:47:43;;;;;;;5.88;1.90;;;;;;;12.59;78.40;100947.72;5093337;28;20428;-58
2022/06/24 10:50:15;;;;;;;8.27;2.38;;;;;;;12.71;78.15;100950.53;5093656;28;20039;-58
2022/06/24 10:52:51;;;;;;;3.92;2.00;;;;;;;12.65;78.47;100942.31;5093343;28;20028;-59
2022/06/24 10:55:17;;;;;;;3.35;1.90;;;;;;;12.59;78.99;100953.09;5093245;28;20392;-58
2022/06/24 10:57:51;;;;;;;4.78;2.10;;;;;;;12.62;79.23;100950.81;5093093;28;20035;-57
2022/06/24 11:00:20;;;;;;;4.97;1.90;;;;;;;12.64;79.22;100948.72;5093001;28;20024;-58
2022/06/24 11:02:50;;;;;;;5.97;2.13;;;;;;;12.64;79.10;100956.78;5092257;28;20537;-58
2022/06/24 11:05:24;;;;;;;3.08;1.70;;;;;;;12.57;79.56;100955.19;5093036;28;20031;-57
2022/06/24 11:07:51;;;;;;;4.47;1.55;;;;;;;12.59;79.47;100953.09;5092911;28;20024;-57
2022/06/24 11:10:26;;;;;;;4.55;1.80;;;;;;;12.69;79.34;100940.84;5092859;28;20024;-57
2022/06/24 11:13:00;;;;;;;5.15;1.40;;;;;;;12.61;79.52;100942.97;5093041;28;20020;-57
2022/06/24 11:15:36;;;;;;;4.90;1.88;;;;;;;12.68;79.51;100930.31;5093266;28;20568;-58
2022/06/24 11:18:06;;;;;;;5.13;2.00;;;;;;;12.61;79.46;100940.28;5091826;28;20391;-58
2022/06/24 11:20:38;;;;;;;9.88;2.70;;;;;;;12.74;79.09;100944.75;5092855;28;20036;-58
2022/06/24 11:23:12;;;;;;;11.45;3.13;;;;;;;12.68;79.39;100941.88;5093154;28;20017;-58
2022/06/24 11:25:40;;;;;;;9.68;3.00;;;;;;;12.74;79.29;100942.88;5093091;28;20016;-58
2022/06/24 11:28:27;;;;;;;4.10;2.65;;;;;;;12.73;79.55;100945.78;5092963;28;20057;-57
2022/06/24 11:30:56;;;;;;;6.85;3.20;;;;;;;12.69;80.00;100945.38;5093337;28;20460;-57
2022/06/24 11:33:23;;;;;;;6.68;3.10;;;;;;;12.62;80.45;100945.44;5093562;28;20032;-57
2022/06/24 11:35:50;;;;;;;7.93;3.85;;;;;;;12.67;80.49;100945.63;5092915;28;20016;-58